Terminal Aerodrome Forecast
Issued by NWS Wilmington, OH

Current Version | Previous Version | Text Only | Print | Product List | Glossary Off
Versions: 1 2 3 4 5 6 7 8 9 10 11 12 13 14 15 16 17 18 19 20 21 22 23 24 25 26 27 28 29

000
FTUS41 KILN 050900 AAA
TAFCMH
TAF AMD
KCMH 050902Z 0509/0606 35012KT P6SM OVC080
      TEMPO 0509/0510 3SM -SN BKN030
     FM051500 34009KT P6SM BKN025
     FM060000 33005KT P6SM FEW030=

USA.gov is the U.S. government's official web portal to all federal, state and local government web resources and services.